aviador You're here:

KHSA Decoded Metar

BAY ST LOUIS in MS, USA
Report Time2017-11-23 19:55:00
UTC Time2017-11-23 20:23:54
Flight Rules vfr VFR
Wind010° at 10 Gusting to 16 kt
W.Decomp.*RWY 36: 9.9 kt HW 1.6 kt RCW
W.Rank010° ranks 8
Current wind is above 010° avg. (7.4)
Visibility9999 m
Phenomena:N/A
Clouds:N/A
Expected CloudBase > 7,600 ft AGL from Temp-Dew spread
CeilingNone
Temp17°C (ISA +2)
Dew Point-2°C (27% RH)
AAT11.1°C
QNH1016 hPa
Density Alt240 ft
Elevation23 ft
Report Wrong Elevation
Raw Report
KHSA 231955Z 01010G16KT 10SM CLR 17/M02 A2999=

Extra information for KHSA:More info

Metar Taf Metar & Taf Last 4 Metars F.Rules Stats Wind Profile Meteogram Temp Stats Airport Information Weather charts Add Link Nearby VenuesMetar ALERT Operation Metar Decoded Social comments

AIRNAV info for KHSA